sensor_id;sensor_type;location;lat;lon;timestamp;P1;durP1;ratioP1;P2;durP2;ratioP2
39066;SDS011;24821;51.988;6.020;2022-07-23T00:02:16;12.82;;;12.32;;
39066;SDS011;24821;51.988;6.020;2022-07-23T00:04:42;13.73;;;13.13;;
39066;SDS011;24821;51.988;6.020;2022-07-23T00:07:07;13.98;;;13.38;;
39066;SDS011;24821;51.988;6.020;2022-07-23T00:09:33;15.85;;;15.15;;
39066;SDS011;24821;51.988;6.020;2022-07-23T00:11:59;16.20;;;15.50;;
39066;SDS011;24821;51.988;6.020;2022-07-23T00:14:24;18.55;;;17.65;;
39066;SDS011;24821;51.988;6.020;2022-07-23T00:16:50;18.10;;;17.27;;
39066;SDS011;24821;51.988;6.020;2022-07-23T00:19:15;19.15;;;18.15;;
39066;SDS011;24821;51.988;6.020;2022-07-23T00:21:41;21.75;;;20.73;;
39066;SDS011;24821;51.988;6.020;2022-07-23T00:24:06;24.88;;;23.65;;
39066;SDS011;24821;51.988;6.020;2022-07-23T00:26:32;27.92;;;26.42;;
39066;SDS011;24821;51.988;6.020;2022-07-23T00:28:57;28.77;;;27.40;;
39066;SDS011;24821;51.988;6.020;2022-07-23T00:31:23;29.02;;;27.65;;
39066;SDS011;24821;51.988;6.020;2022-07-23T00:33:48;31.05;;;29.73;;
39066;SDS011;24821;51.988;6.020;2022-07-23T00:36:14;36.20;;;34.45;;
39066;SDS011;24821;51.988;6.020;2022-07-23T00:38:39;34.25;;;32.75;;
39066;SDS011;24821;51.988;6.020;2022-07-23T00:41:05;33.65;;;32.15;;
39066;SDS011;24821;51.988;6.020;2022-07-23T00:43:31;31.23;;;29.58;;
39066;SDS011;24821;51.988;6.020;2022-07-23T00:45:56;27.80;;;26.55;;
39066;SDS011;24821;51.988;6.020;2022-07-23T00:48:22;27.10;;;25.85;;
39066;SDS011;24821;51.988;6.020;2022-07-23T00:50:47;23.65;;;22.55;;
39066;SDS011;24821;51.988;6.020;2022-07-23T00:53:13;21.90;;;20.90;;
39066;SDS011;24821;51.988;6.020;2022-07-23T00:55:40;22.25;;;20.70;;
39066;SDS011;24821;51.988;6.020;2022-07-23T00:58:06;16.83;;;15.98;;
39066;SDS011;24821;51.988;6.020;2022-07-23T01:00:33;17.25;;;16.40;;
39066;SDS011;24821;51.988;6.020;2022-07-23T01:02:59;16.90;;;15.93;;
39066;SDS011;24821;51.988;6.020;2022-07-23T01:05:24;13.73;;;12.93;;
39066;SDS011;24821;51.988;6.020;2022-07-23T01:07:51;12.55;;;11.75;;
39066;SDS011;24821;51.988;6.020;2022-07-23T01:10:17;12.00;;;11.30;;
39066;SDS011;24821;51.988;6.020;2022-07-23T01:12:58;10.65;;;10.05;;
39066;SDS011;24821;51.988;6.020;2022-07-23T01:15:25;11.52;;;10.93;;
39066;SDS011;24821;51.988;6.020;2022-07-23T01:17:51;9.93;;;9.35;;
39066;SDS011;24821;51.988;6.020;2022-07-23T01:20:17;9.57;;;9.15;;
39066;SDS011;24821;51.988;6.020;2022-07-23T01:22:43;10.85;;;9.75;;
39066;SDS011;24821;51.988;6.020;2022-07-23T01:25:09;10.40;;;9.80;;
39066;SDS011;24821;51.988;6.020;2022-07-23T01:27:35;9.93;;;9.43;;
39066;SDS011;24821;51.988;6.020;2022-07-23T01:30:00;10.55;;;9.93;;
39066;SDS011;24821;51.988;6.020;2022-07-23T01:32:27;11.18;;;10.25;;
39066;SDS011;24821;51.988;6.020;2022-07-23T01:34:53;10.88;;;10.27;;
39066;SDS011;24821;51.988;6.020;2022-07-23T01:37:19;11.50;;;10.80;;
39066;SDS011;24821;51.988;6.020;2022-07-23T01:39:45;11.57;;;10.98;;
39066;SDS011;24821;51.988;6.020;2022-07-23T01:42:10;12.93;;;12.13;;
39066;SDS011;24821;51.988;6.020;2022-07-23T01:44:36;13.15;;;12.38;;
39066;SDS011;24821;51.988;6.020;2022-07-23T01:47:01;13.65;;;12.88;;
39066;SDS011;24821;51.988;6.020;2022-07-23T01:49:27;12.90;;;12.27;;
39066;SDS011;24821;51.988;6.020;2022-07-23T01:51:53;13.00;;;12.30;;
39066;SDS011;24821;51.988;6.020;2022-07-23T01:54:28;12.35;;;11.75;;
39066;SDS011;24821;51.988;6.020;2022-07-23T01:56:55;14.23;;;13.57;;
39066;SDS011;24821;51.988;6.020;2022-07-23T01:59:21;15.30;;;14.35;;
39066;SDS011;24821;51.988;6.020;2022-07-23T02:01:47;15.25;;;14.38;;
39066;SDS011;24821;51.988;6.020;2022-07-23T02:04:15;13.90;;;12.90;;
39066;SDS011;24821;51.988;6.020;2022-07-23T02:06:41;15.98;;;15.00;;
39066;SDS011;24821;51.988;6.020;2022-07-23T02:09:07;16.27;;;15.27;;
39066;SDS011;24821;51.988;6.020;2022-07-23T02:11:32;15.82;;;15.02;;
39066;SDS011;24821;51.988;6.020;2022-07-23T02:13:58;14.98;;;14.07;;
39066;SDS011;24821;51.988;6.020;2022-07-23T02:16:24;16.33;;;15.43;;
39066;SDS011;24821;51.988;6.020;2022-07-23T02:18:49;15.27;;;14.48;;
39066;SDS011;24821;51.988;6.020;2022-07-23T02:21:15;17.73;;;16.70;;
39066;SDS011;24821;51.988;6.020;2022-07-23T02:23:40;17.73;;;16.83;;
39066;SDS011;24821;51.988;6.020;2022-07-23T02:26:06;18.00;;;16.90;;
39066;SDS011;24821;51.988;6.020;2022-07-23T02:28:32;16.70;;;15.90;;
39066;SDS011;24821;51.988;6.020;2022-07-23T02:30:57;17.85;;;16.95;;
39066;SDS011;24821;51.988;6.020;2022-07-23T02:33:23;18.95;;;18.05;;
39066;SDS011;24821;51.988;6.020;2022-07-23T02:35:48;18.35;;;17.13;;
39066;SDS011;24821;51.988;6.020;2022-07-23T02:38:14;17.00;;;16.23;;
39066;SDS011;24821;51.988;6.020;2022-07-23T02:40:39;17.70;;;16.90;;
39066;SDS011;24821;51.988;6.020;2022-07-23T02:43:05;19.08;;;17.98;;
39066;SDS011;24821;51.988;6.020;2022-07-23T02:45:30;18.55;;;17.63;;
39066;SDS011;24821;51.988;6.020;2022-07-23T02:47:56;20.60;;;19.60;;
39066;SDS011;24821;51.988;6.020;2022-07-23T02:50:22;21.00;;;20.10;;
39066;SDS011;24821;51.988;6.020;2022-07-23T02:52:47;17.65;;;16.75;;
39066;SDS011;24821;51.988;6.020;2022-07-23T02:55:13;22.08;;;20.90;;
39066;SDS011;24821;51.988;6.020;2022-07-23T02:57:39;21.42;;;20.13;;
39066;SDS011;24821;51.988;6.020;2022-07-23T03:00:04;20.27;;;19.25;;
39066;SDS011;24821;51.988;6.020;2022-07-23T03:02:31;19.75;;;18.75;;
39066;SDS011;24821;51.988;6.020;2022-07-23T03:04:56;23.60;;;22.50;;
39066;SDS011;24821;51.988;6.020;2022-07-23T03:07:22;23.40;;;22.27;;
39066;SDS011;24821;51.988;6.020;2022-07-23T03:09:48;23.67;;;22.58;;
39066;SDS011;24821;51.988;6.020;2022-07-23T03:12:13;23.33;;;22.02;;
39066;SDS011;24821;51.988;6.020;2022-07-23T03:14:39;26.05;;;24.75;;
39066;SDS011;24821;51.988;6.020;2022-07-23T03:17:05;25.88;;;24.58;;
39066;SDS011;24821;51.988;6.020;2022-07-23T03:19:31;26.80;;;25.27;;
39066;SDS011;24821;51.988;6.020;2022-07-23T03:21:56;27.90;;;26.52;;
39066;SDS011;24821;51.988;6.020;2022-07-23T03:24:22;26.50;;;25.33;;
39066;SDS011;24821;51.988;6.020;2022-07-23T03:27:07;25.02;;;23.92;;
39066;SDS011;24821;51.988;6.020;2022-07-23T03:29:33;26.33;;;25.02;;
39066;SDS011;24821;51.988;6.020;2022-07-23T03:31:58;29.00;;;27.40;;
39066;SDS011;24821;51.988;6.020;2022-07-23T03:34:24;27.33;;;26.08;;
39066;SDS011;24821;51.988;6.020;2022-07-23T03:36:49;29.95;;;28.60;;
39066;SDS011;24821;51.988;6.020;2022-07-23T03:39:15;28.55;;;27.15;;
39066;SDS011;24821;51.988;6.020;2022-07-23T03:41:41;27.60;;;26.38;;
39066;SDS011;24821;51.988;6.020;2022-07-23T03:44:06;28.83;;;27.25;;
39066;SDS011;24821;51.988;6.020;2022-07-23T03:46:32;28.58;;;27.23;;
39066;SDS011;24821;51.988;6.020;2022-07-23T03:48:57;29.70;;;28.38;;
39066;SDS011;24821;51.988;6.020;2022-07-23T03:51:23;30.67;;;29.38;;
39066;SDS011;24821;51.988;6.020;2022-07-23T03:53:48;31.05;;;29.70;;
39066;SDS011;24821;51.988;6.020;2022-07-23T03:56:14;32.75;;;31.10;;
39066;SDS011;24821;51.988;6.020;2022-07-23T03:58:39;33.65;;;31.95;;
39066;SDS011;24821;51.988;6.020;2022-07-23T04:01:05;32.03;;;30.67;;
39066;SDS011;24821;51.988;6.020;2022-07-23T04:03:31;33.45;;;31.85;;
39066;SDS011;24821;51.988;6.020;2022-07-23T04:05:56;35.35;;;33.63;;
39066;SDS011;24821;51.988;6.020;2022-07-23T04:08:22;31.20;;;29.65;;
39066;SDS011;24821;51.988;6.020;2022-07-23T04:10:47;33.50;;;31.95;;
39066;SDS011;24821;51.988;6.020;2022-07-23T04:13:13;33.25;;;31.67;;
39066;SDS011;24821;51.988;6.020;2022-07-23T04:15:38;28.00;;;26.75;;
39066;SDS011;24821;51.988;6.020;2022-07-23T04:18:04;27.70;;;26.30;;
39066;SDS011;24821;51.988;6.020;2022-07-23T04:20:30;30.25;;;28.77;;
39066;SDS011;24821;51.988;6.020;2022-07-23T04:22:55;32.13;;;30.67;;
39066;SDS011;24821;51.988;6.020;2022-07-23T04:25:21;29.08;;;27.83;;
39066;SDS011;24821;51.988;6.020;2022-07-23T04:27:46;31.52;;;30.02;;
39066;SDS011;24821;51.988;6.020;2022-07-23T04:30:12;29.40;;;28.00;;
39066;SDS011;24821;51.988;6.020;2022-07-23T04:32:37;27.67;;;26.35;;
39066;SDS011;24821;51.988;6.020;2022-07-23T04:35:03;25.08;;;23.85;;
39066;SDS011;24821;51.988;6.020;2022-07-23T04:37:29;25.08;;;23.75;;
39066;SDS011;24821;51.988;6.020;2022-07-23T04:39:54;24.92;;;23.70;;
39066;SDS011;24821;51.988;6.020;2022-07-23T04:42:20;25.17;;;24.00;;
39066;SDS011;24821;51.988;6.020;2022-07-23T04:44:45;21.02;;;20.13;;
39066;SDS011;24821;51.988;6.020;2022-07-23T04:47:11;21.65;;;20.55;;
39066;SDS011;24821;51.988;6.020;2022-07-23T04:49:36;22.80;;;21.60;;
39066;SDS011;24821;51.988;6.020;2022-07-23T04:52:02;22.23;;;21.20;;
39066;SDS011;24821;51.988;6.020;2022-07-23T04:54:28;21.35;;;20.30;;
39066;SDS011;24821;51.988;6.020;2022-07-23T04:56:53;21.42;;;20.48;;
39066;SDS011;24821;51.988;6.020;2022-07-23T04:59:19;20.30;;;19.25;;
39066;SDS011;24821;51.988;6.020;2022-07-23T05:01:44;21.38;;;19.65;;
39066;SDS011;24821;51.988;6.020;2022-07-23T05:04:10;21.10;;;20.13;;
39066;SDS011;24821;51.988;6.020;2022-07-23T05:06:35;20.60;;;19.50;;
39066;SDS011;24821;51.988;6.020;2022-07-23T05:09:01;20.80;;;19.80;;
39066;SDS011;24821;51.988;6.020;2022-07-23T05:11:26;18.75;;;17.85;;
39066;SDS011;24821;51.988;6.020;2022-07-23T05:13:52;20.00;;;19.00;;
39066;SDS011;24821;51.988;6.020;2022-07-23T05:16:17;19.17;;;18.30;;
39066;SDS011;24821;51.988;6.020;2022-07-23T05:18:43;17.90;;;17.10;;
39066;SDS011;24821;51.988;6.020;2022-07-23T05:21:08;22.42;;;21.35;;
39066;SDS011;24821;51.988;6.020;2022-07-23T05:23:34;19.98;;;19.08;;
39066;SDS011;24821;51.988;6.020;2022-07-23T05:25:59;20.00;;;18.90;;
39066;SDS011;24821;51.988;6.020;2022-07-23T05:28:25;19.42;;;18.52;;
39066;SDS011;24821;51.988;6.020;2022-07-23T05:30:51;21.00;;;19.80;;
39066;SDS011;24821;51.988;6.020;2022-07-23T05:33:18;20.92;;;19.92;;
39066;SDS011;24821;51.988;6.020;2022-07-23T05:35:44;21.25;;;20.15;;
39066;SDS011;24821;51.988;6.020;2022-07-23T05:38:10;21.80;;;20.65;;
39066;SDS011;24821;51.988;6.020;2022-07-23T05:40:35;19.60;;;18.73;;
39066;SDS011;24821;51.988;6.020;2022-07-23T05:43:01;19.13;;;18.23;;
39066;SDS011;24821;51.988;6.020;2022-07-23T05:45:27;20.83;;;19.83;;
39066;SDS011;24821;51.988;6.020;2022-07-23T05:47:52;19.25;;;18.38;;
39066;SDS011;24821;51.988;6.020;2022-07-23T05:50:18;20.38;;;19.48;;
39066;SDS011;24821;51.988;6.020;2022-07-23T05:52:44;19.45;;;18.55;;
39066;SDS011;24821;51.988;6.020;2022-07-23T05:55:10;17.15;;;16.25;;
39066;SDS011;24821;51.988;6.020;2022-07-23T05:57:37;17.20;;;16.40;;
39066;SDS011;24821;51.988;6.020;2022-07-23T06:00:03;17.10;;;16.20;;
39066;SDS011;24821;51.988;6.020;2022-07-23T06:02:30;18.02;;;17.02;;
39066;SDS011;24821;51.988;6.020;2022-07-23T06:04:55;18.73;;;17.80;;
39066;SDS011;24821;51.988;6.020;2022-07-23T06:07:21;17.35;;;16.55;;
39066;SDS011;24821;51.988;6.020;2022-07-23T06:09:46;18.17;;;17.27;;
39066;SDS011;24821;51.988;6.020;2022-07-23T06:12:13;17.70;;;16.92;;
39066;SDS011;24821;51.988;6.020;2022-07-23T06:14:40;19.08;;;18.02;;
39066;SDS011;24821;51.988;6.020;2022-07-23T06:17:05;17.35;;;16.60;;
39066;SDS011;24821;51.988;6.020;2022-07-23T06:19:31;11.68;;;11.05;;
39066;SDS011;24821;51.988;6.020;2022-07-23T06:21:56;13.80;;;13.10;;
39066;SDS011;24821;51.988;6.020;2022-07-23T06:24:22;11.27;;;10.70;;
39066;SDS011;24821;51.988;6.020;2022-07-23T06:26:47;13.48;;;12.77;;
39066;SDS011;24821;51.988;6.020;2022-07-23T06:29:13;14.88;;;14.20;;
39066;SDS011;24821;51.988;6.020;2022-07-23T06:31:38;12.32;;;11.63;;
39066;SDS011;24821;51.988;6.020;2022-07-23T06:34:04;11.32;;;10.75;;
39066;SDS011;24821;51.988;6.020;2022-07-23T06:36:29;11.57;;;10.90;;
39066;SDS011;24821;51.988;6.020;2022-07-23T06:38:55;8.15;;;7.75;;
39066;SDS011;24821;51.988;6.020;2022-07-23T06:41:21;8.55;;;8.15;;
39066;SDS011;24821;51.988;6.020;2022-07-23T06:43:47;10.57;;;9.80;;
39066;SDS011;24821;51.988;6.020;2022-07-23T06:46:13;11.90;;;11.40;;
39066;SDS011;24821;51.988;6.020;2022-07-23T06:48:39;13.50;;;12.90;;
39066;SDS011;24821;51.988;6.020;2022-07-23T06:51:04;16.92;;;16.13;;
39066;SDS011;24821;51.988;6.020;2022-07-23T06:53:30;19.67;;;18.75;;
39066;SDS011;24821;51.988;6.020;2022-07-23T06:55:56;15.00;;;14.15;;
39066;SDS011;24821;51.988;6.020;2022-07-23T06:58:21;22.80;;;21.80;;
39066;SDS011;24821;51.988;6.020;2022-07-23T07:00:47;23.92;;;22.75;;
39066;SDS011;24821;51.988;6.020;2022-07-23T07:03:12;19.02;;;18.13;;
39066;SDS011;24821;51.988;6.020;2022-07-23T07:05:38;19.52;;;18.58;;
39066;SDS011;24821;51.988;6.020;2022-07-23T07:08:05;24.50;;;23.40;;
39066;SDS011;24821;51.988;6.020;2022-07-23T07:10:31;16.77;;;15.77;;
39066;SDS011;24821;51.988;6.020;2022-07-23T07:12:57;14.05;;;13.38;;
39066;SDS011;24821;51.988;6.020;2022-07-23T07:15:22;14.60;;;13.82;;
39066;SDS011;24821;51.988;6.020;2022-07-23T07:17:48;13.82;;;13.23;;
39066;SDS011;24821;51.988;6.020;2022-07-23T07:20:13;13.63;;;12.93;;
39066;SDS011;24821;51.988;6.020;2022-07-23T07:22:39;14.15;;;13.45;;
39066;SDS011;24821;51.988;6.020;2022-07-23T07:25:05;11.50;;;11.00;;
39066;SDS011;24821;51.988;6.020;2022-07-23T07:27:31;10.13;;;9.73;;
39066;SDS011;24821;51.988;6.020;2022-07-23T07:29:57;11.57;;;11.07;;
39066;SDS011;24821;51.988;6.020;2022-07-23T07:32:22;12.82;;;12.23;;
39066;SDS011;24821;51.988;6.020;2022-07-23T07:34:48;12.45;;;11.95;;
39066;SDS011;24821;51.988;6.020;2022-07-23T07:37:14;10.98;;;10.43;;
39066;SDS011;24821;51.988;6.020;2022-07-23T07:39:40;11.50;;;10.82;;
39066;SDS011;24821;51.988;6.020;2022-07-23T07:42:05;7.72;;;7.35;;
39066;SDS011;24821;51.988;6.020;2022-07-23T07:44:31;15.23;;;14.52;;
39066;SDS011;24821;51.988;6.020;2022-07-23T07:46:56;11.13;;;10.52;;
39066;SDS011;24821;51.988;6.020;2022-07-23T07:49:22;10.93;;;10.30;;
39066;SDS011;24821;51.988;6.020;2022-07-23T07:51:48;7.95;;;7.45;;
39066;SDS011;24821;51.988;6.020;2022-07-23T07:54:14;11.32;;;10.68;;
39066;SDS011;24821;51.988;6.020;2022-07-23T07:56:40;8.07;;;7.55;;
39066;SDS011;24821;51.988;6.020;2022-07-23T07:59:05;6.97;;;6.68;;
39066;SDS011;24821;51.988;6.020;2022-07-23T08:01:31;6.00;;;5.68;;
39066;SDS011;24821;51.988;6.020;2022-07-23T08:03:57;6.40;;;6.10;;
39066;SDS011;24821;51.988;6.020;2022-07-23T08:06:22;4.38;;;4.18;;
39066;SDS011;24821;51.988;6.020;2022-07-23T08:08:48;4.65;;;4.25;;
39066;SDS011;24821;51.988;6.020;2022-07-23T08:11:14;4.88;;;4.47;;
39066;SDS011;24821;51.988;6.020;2022-07-23T08:13:40;6.65;;;6.25;;
39066;SDS011;24821;51.988;6.020;2022-07-23T08:16:06;5.15;;;4.93;;
39066;SDS011;24821;51.988;6.020;2022-07-23T08:18:31;4.32;;;4.00;;
39066;SDS011;24821;51.988;6.020;2022-07-23T08:20:57;4.38;;;4.07;;
39066;SDS011;24821;51.988;6.020;2022-07-23T08:23:23;3.70;;;3.50;;
39066;SDS011;24821;51.988;6.020;2022-07-23T08:25:48;4.50;;;4.28;;
39066;SDS011;24821;51.988;6.020;2022-07-23T08:28:14;5.65;;;5.30;;
39066;SDS011;24821;51.988;6.020;2022-07-23T08:30:41;6.20;;;5.90;;
39066;SDS011;24821;51.988;6.020;2022-07-23T08:33:09;6.22;;;5.93;;
39066;SDS011;24821;51.988;6.020;2022-07-23T08:35:38;5.60;;;5.40;;
39066;SDS011;24821;51.988;6.020;2022-07-23T08:38:09;5.20;;;5.00;;
39066;SDS011;24821;51.988;6.020;2022-07-23T08:40:37;4.03;;;3.83;;
39066;SDS011;24821;51.988;6.020;2022-07-23T08:43:04;4.03;;;3.83;;
39066;SDS011;24821;51.988;6.020;2022-07-23T08:45:31;4.78;;;4.50;;
39066;SDS011;24821;51.988;6.020;2022-07-23T08:48:03;1.75;;;1.65;;
39066;SDS011;24821;51.988;6.020;2022-07-23T08:50:30;3.22;;;3.03;;
39066;SDS011;24821;51.988;6.020;2022-07-23T08:52:56;3.47;;;3.28;;
39066;SDS011;24821;51.988;6.020;2022-07-23T08:55:23;3.83;;;3.08;;
39066;SDS011;24821;51.988;6.020;2022-07-23T08:57:50;2.47;;;2.30;;
39066;SDS011;24821;51.988;6.020;2022-07-23T09:00:17;2.70;;;2.55;;
39066;SDS011;24821;51.988;6.020;2022-07-23T09:02:44;2.33;;;2.22;;
39066;SDS011;24821;51.988;6.020;2022-07-23T09:05:10;2.92;;;2.83;;
39066;SDS011;24821;51.988;6.020;2022-07-23T09:07:37;4.78;;;4.57;;
39066;SDS011;24821;51.988;6.020;2022-07-23T09:10:23;4.00;;;3.70;;
39066;SDS011;24821;51.988;6.020;2022-07-23T09:12:49;4.00;;;3.80;;
39066;SDS011;24821;51.988;6.020;2022-07-23T09:15:14;2.75;;;2.65;;
39066;SDS011;24821;51.988;6.020;2022-07-23T09:17:41;3.55;;;3.35;;
39066;SDS011;24821;51.988;6.020;2022-07-23T09:20:12;2.17;;;2.08;;
39066;SDS011;24821;51.988;6.020;2022-07-23T09:22:39;2.95;;;2.85;;
39066;SDS011;24821;51.988;6.020;2022-07-23T09:30:20;2.22;;;1.88;;
39066;SDS011;24821;51.988;6.020;2022-07-23T09:35:55;2.83;;;2.63;;
39066;SDS011;24821;51.988;6.020;2022-07-23T09:38:24;1.92;;;1.83;;
39066;SDS011;24821;51.988;6.020;2022-07-23T09:43:46;2.72;;;2.60;;
39066;SDS011;24821;51.988;6.020;2022-07-23T09:46:25;2.47;;;2.38;;
39066;SDS011;24821;51.988;6.020;2022-07-23T09:48:57;2.55;;;2.45;;
39066;SDS011;24821;51.988;6.020;2022-07-23T09:51:23;2.28;;;2.17;;
39066;SDS011;24821;51.988;6.020;2022-07-23T09:54:01;2.70;;;2.60;;
39066;SDS011;24821;51.988;6.020;2022-07-23T09:56:27;3.53;;;3.33;;
39066;SDS011;24821;51.988;6.020;2022-07-23T09:58:53;3.05;;;2.85;;
39066;SDS011;24821;51.988;6.020;2022-07-23T10:01:32;3.35;;;3.15;;
39066;SDS011;24821;51.988;6.020;2022-07-23T10:03:59;4.18;;;3.88;;
39066;SDS011;24821;51.988;6.020;2022-07-23T10:06:26;4.07;;;3.88;;
39066;SDS011;24821;51.988;6.020;2022-07-23T10:08:53;2.55;;;2.45;;
39066;SDS011;24821;51.988;6.020;2022-07-23T10:11:23;3.20;;;3.00;;
39066;SDS011;24821;51.988;6.020;2022-07-23T10:13:49;2.75;;;2.65;;
39066;SDS011;24821;51.988;6.020;2022-07-23T10:16:23;2.83;;;2.72;;
39066;SDS011;24821;51.988;6.020;2022-07-23T10:18:49;3.42;;;3.22;;
39066;SDS011;24821;51.988;6.020;2022-07-23T10:21:58;2.40;;;2.30;;
39066;SDS011;24821;51.988;6.020;2022-07-23T10:24:20;3.33;;;3.22;;
39066;SDS011;24821;51.988;6.020;2022-07-23T10:30:20;4.30;;;4.10;;
39066;SDS011;24821;51.988;6.020;2022-07-23T10:32:56;4.40;;;4.15;;
39066;SDS011;24821;51.988;6.020;2022-07-23T10:35:38;3.90;;;3.80;;
39066;SDS011;24821;51.988;6.020;2022-07-23T10:38:25;4.50;;;4.10;;
39066;SDS011;24821;51.988;6.020;2022-07-23T10:40:59;3.58;;;3.38;;
39066;SDS011;24821;51.988;6.020;2022-07-23T10:43:27;3.72;;;3.47;;
39066;SDS011;24821;51.988;6.020;2022-07-23T10:45:54;3.20;;;3.10;;
39066;SDS011;24821;51.988;6.020;2022-07-23T10:48:26;3.20;;;3.00;;
39066;SDS011;24821;51.988;6.020;2022-07-23T10:56:16;3.47;;;3.28;;
39066;SDS011;24821;51.988;6.020;2022-07-23T10:59:05;4.13;;;3.92;;
39066;SDS011;24821;51.988;6.020;2022-07-23T11:01:34;3.83;;;3.63;;
39066;SDS011;24821;51.988;6.020;2022-07-23T11:04:02;3.78;;;3.65;;
39066;SDS011;24821;51.988;6.020;2022-07-23T11:09:26;2.95;;;2.85;;
39066;SDS011;24821;51.988;6.020;2022-07-23T11:17:37;3.47;;;3.28;;
39066;SDS011;24821;51.988;6.020;2022-07-23T11:25:10;2.35;;;2.20;;
39066;SDS011;24821;51.988;6.020;2022-07-23T11:27:40;2.90;;;2.80;;
39066;SDS011;24821;51.988;6.020;2022-07-23T11:30:08;3.17;;;2.97;;
39066;SDS011;24821;51.988;6.020;2022-07-23T11:32:36;3.80;;;3.65;;
39066;SDS011;24821;51.988;6.020;2022-07-23T11:35:20;4.47;;;4.28;;
39066;SDS011;24821;51.988;6.020;2022-07-23T11:38:03;6.15;;;5.85;;
39066;SDS011;24821;51.988;6.020;2022-07-23T11:40:39;4.38;;;4.07;;
39066;SDS011;24821;51.988;6.020;2022-07-23T11:43:07;5.15;;;4.85;;
39066;SDS011;24821;51.988;6.020;2022-07-23T11:45:37;4.85;;;4.55;;
39066;SDS011;24821;51.988;6.020;2022-07-23T11:48:05;5.82;;;5.53;;
39066;SDS011;24821;51.988;6.020;2022-07-23T11:50:33;3.95;;;3.70;;
39066;SDS011;24821;51.988;6.020;2022-07-23T11:52:59;3.35;;;3.25;;
39066;SDS011;24821;51.988;6.020;2022-07-23T11:55:25;4.93;;;4.60;;
39066;SDS011;24821;51.988;6.020;2022-07-23T11:57:51;5.65;;;5.45;;
39066;SDS011;24821;51.988;6.020;2022-07-23T12:00:22;5.28;;;4.88;;
39066;SDS011;24821;51.988;6.020;2022-07-23T12:02:51;5.22;;;5.03;;
39066;SDS011;24821;51.988;6.020;2022-07-23T12:05:23;6.65;;;6.35;;
39066;SDS011;24821;51.988;6.020;2022-07-23T12:07:50;7.55;;;6.95;;
39066;SDS011;24821;51.988;6.020;2022-07-23T12:10:18;5.72;;;5.43;;
39066;SDS011;24821;51.988;6.020;2022-07-23T12:12:47;4.85;;;4.65;;
39066;SDS011;24821;51.988;6.020;2022-07-23T12:15:24;4.25;;;4.05;;
39066;SDS011;24821;51.988;6.020;2022-07-23T12:20:24;7.07;;;6.78;;
39066;SDS011;24821;51.988;6.020;2022-07-23T12:22:53;7.80;;;7.30;;
39066;SDS011;24821;51.988;6.020;2022-07-23T12:25:24;7.05;;;6.75;;
39066;SDS011;24821;51.988;6.020;2022-07-23T12:28:04;6.80;;;6.50;;
39066;SDS011;24821;51.988;6.020;2022-07-23T12:30:48;6.93;;;6.63;;
39066;SDS011;24821;51.988;6.020;2022-07-23T12:33:25;8.30;;;7.90;;
39066;SDS011;24821;51.988;6.020;2022-07-23T12:35:56;7.70;;;7.40;;
39066;SDS011;24821;51.988;6.020;2022-07-23T12:38:24;6.97;;;6.65;;
39066;SDS011;24821;51.988;6.020;2022-07-23T12:40:55;5.22;;;5.03;;
39066;SDS011;24821;51.988;6.020;2022-07-23T12:43:26;6.03;;;5.57;;
39066;SDS011;24821;51.988;6.020;2022-07-23T12:45:57;3.63;;;3.33;;
39066;SDS011;24821;51.988;6.020;2022-07-23T12:48:49;4.88;;;4.68;;
39066;SDS011;24821;51.988;6.020;2022-07-23T12:51:27;3.10;;;3.00;;
39066;SDS011;24821;51.988;6.020;2022-07-23T12:53:56;4.75;;;4.53;;
39066;SDS011;24821;51.988;6.020;2022-07-23T12:56:27;3.45;;;3.25;;
39066;SDS011;24821;51.988;6.020;2022-07-23T13:01:29;3.38;;;3.17;;
39066;SDS011;24821;51.988;6.020;2022-07-23T13:06:47;3.28;;;2.92;;
39066;SDS011;24821;51.988;6.020;2022-07-23T13:09:17;3.30;;;3.17;;
39066;SDS011;24821;51.988;6.020;2022-07-23T13:11:48;3.63;;;3.42;;
39066;SDS011;24821;51.988;6.020;2022-07-23T13:14:15;4.55;;;4.30;;
39066;SDS011;24821;51.988;6.020;2022-07-23T13:16:43;5.40;;;5.18;;
39066;SDS011;24821;51.988;6.020;2022-07-23T13:19:10;5.25;;;4.95;;
39066;SDS011;24821;51.988;6.020;2022-07-23T13:21:35;4.35;;;4.10;;
39066;SDS011;24821;51.988;6.020;2022-07-23T13:24:01;7.35;;;6.95;;
39066;SDS011;24821;51.988;6.020;2022-07-23T13:26:27;6.50;;;6.20;;
39066;SDS011;24821;51.988;6.020;2022-07-23T13:28:53;4.50;;;4.18;;
39066;SDS011;24821;51.988;6.020;2022-07-23T13:31:19;3.80;;;3.60;;
39066;SDS011;24821;51.988;6.020;2022-07-23T13:33:44;4.45;;;4.15;;
39066;SDS011;24821;51.988;6.020;2022-07-23T13:36:10;5.80;;;5.50;;
39066;SDS011;24821;51.988;6.020;2022-07-23T13:38:36;5.43;;;5.13;;
39066;SDS011;24821;51.988;6.020;2022-07-23T13:41:02;4.07;;;3.88;;
39066;SDS011;24821;51.988;6.020;2022-07-23T13:43:28;3.92;;;3.72;;
39066;SDS011;24821;51.988;6.020;2022-07-23T13:45:54;4.13;;;3.92;;
39066;SDS011;24821;51.988;6.020;2022-07-23T13:48:20;5.88;;;5.57;;
39066;SDS011;24821;51.988;6.020;2022-07-23T13:50:47;6.57;;;6.28;;
39066;SDS011;24821;51.988;6.020;2022-07-23T13:53:14;5.78;;;5.55;;
39066;SDS011;24821;51.988;6.020;2022-07-23T13:55:41;4.18;;;3.97;;
39066;SDS011;24821;51.988;6.020;2022-07-23T13:58:08;6.75;;;6.45;;
39066;SDS011;24821;51.988;6.020;2022-07-23T14:00:35;7.40;;;7.07;;
39066;SDS011;24821;51.988;6.020;2022-07-23T14:03:03;8.20;;;7.78;;
39066;SDS011;24821;51.988;6.020;2022-07-23T14:05:28;6.18;;;5.88;;
39066;SDS011;24821;51.988;6.020;2022-07-23T14:07:54;6.68;;;6.38;;
39066;SDS011;24821;51.988;6.020;2022-07-23T14:10:20;5.35;;;5.10;;
39066;SDS011;24821;51.988;6.020;2022-07-23T14:12:47;4.18;;;3.97;;
39066;SDS011;24821;51.988;6.020;2022-07-23T14:15:14;2.85;;;2.65;;
39066;SDS011;24821;51.988;6.020;2022-07-23T14:17:41;4.82;;;4.63;;
39066;SDS011;24821;51.988;6.020;2022-07-23T14:20:08;5.32;;;5.03;;
39066;SDS011;24821;51.988;6.020;2022-07-23T14:22:34;5.43;;;5.22;;
39066;SDS011;24821;51.988;6.020;2022-07-23T14:25:00;6.25;;;5.93;;
39066;SDS011;24821;51.988;6.020;2022-07-23T14:27:26;7.13;;;6.82;;
39066;SDS011;24821;51.988;6.020;2022-07-23T14:29:53;7.05;;;6.63;;
39066;SDS011;24821;51.988;6.020;2022-07-23T14:32:19;7.30;;;7.00;;
39066;SDS011;24821;51.988;6.020;2022-07-23T14:34:45;8.13;;;7.72;;
39066;SDS011;24821;51.988;6.020;2022-07-23T14:37:11;6.82;;;6.53;;
39066;SDS011;24821;51.988;6.020;2022-07-23T14:39:37;5.32;;;5.03;;
39066;SDS011;24821;51.988;6.020;2022-07-23T14:42:03;6.57;;;6.22;;
39066;SDS011;24821;51.988;6.020;2022-07-23T14:44:29;9.80;;;9.23;;
39066;SDS011;24821;51.988;6.020;2022-07-23T14:46:55;6.35;;;6.05;;
39066;SDS011;24821;51.988;6.020;2022-07-23T14:49:21;6.10;;;5.80;;
39066;SDS011;24821;51.988;6.020;2022-07-23T14:51:46;6.40;;;6.07;;
39066;SDS011;24821;51.988;6.020;2022-07-23T14:54:12;7.30;;;6.72;;
39066;SDS011;24821;51.988;6.020;2022-07-23T14:56:38;9.93;;;9.52;;
39066;SDS011;24821;51.988;6.020;2022-07-23T14:59:05;6.40;;;5.90;;
39066;SDS011;24821;51.988;6.020;2022-07-23T15:01:31;6.22;;;5.90;;
39066;SDS011;24821;51.988;6.020;2022-07-23T15:03:57;5.60;;;5.32;;
39066;SDS011;24821;51.988;6.020;2022-07-23T15:06:22;7.07;;;6.60;;
39066;SDS011;24821;51.988;6.020;2022-07-23T15:08:48;8.07;;;7.55;;
39066;SDS011;24821;51.988;6.020;2022-07-23T15:11:13;7.68;;;7.28;;
39066;SDS011;24821;51.988;6.020;2022-07-23T15:13:39;8.15;;;7.82;;
39066;SDS011;24821;51.988;6.020;2022-07-23T15:16:05;8.90;;;8.50;;